Time;durP1;ratioP1;P1;durP2;ratioP2;P2;SDS_P1;SDS_P2;PMS_P1;PMS_P2;Temp;Humidity;BMP_temperature;BMP_pressure;BME280_temperature;BME280_humidity;BME280_pressure;Samples;Min_cycle;Max_cycle;Signal;HPM_P1;HPM_P2
2022/02/02 00:02:02;;;;;;;;;;;;;;;8.91;66.92;100411.25;5009268;27;103128;-49
2022/02/02 00:04:23;;;;;;;;;;;;;;;8.90;66.83;100415.84;5001702;28;102731;-50
2022/02/02 00:10:06;;;;;;;;;;;;;;;8.90;66.94;100413.13;4979038;28;104045;-48
2022/02/02 00:12:44;;;;;;;;;;;;;;;8.91;66.91;100416.69;4969623;28;102717;-49
2022/02/02 00:15:44;;;;;;;;;;;;;;;8.90;66.86;100409.59;4993610;27;102157;-49
2022/02/02 00:21:03;;;;;;;;;;;;;;;8.90;67.00;100402.28;5006724;28;107716;-49
2022/02/02 00:23:39;;;;;;;;;;;;;;;8.90;67.27;100396.84;5012436;28;102575;-49
2022/02/02 00:26:14;;;;;;;;;;;;;;;8.90;67.53;100399.56;5007363;27;105710;-49
2022/02/02 00:28:45;;;;;;;;;;;;;;;8.90;67.00;100405.00;5009740;28;102271;-49
2022/02/02 00:31:18;;;;;;;;;;;;;;;8.90;67.01;100399.56;5006691;27;103910;-49
2022/02/02 00:33:50;;;;;;;;;;;;;;;8.90;67.24;100394.13;5005790;28;102531;-48
2022/02/02 00:36:21;;;;;;;;;;;;;;;8.90;67.03;100388.69;5007910;27;102486;-50
2022/02/02 00:38:47;;;;;;;;;;;;;;;8.91;67.14;100386.84;5007665;27;102290;-49
2022/02/02 00:41:15;;;;;;;;;;;;;;;8.89;67.81;100387.09;5002747;27;103693;-48
2022/02/02 00:43:44;;;;;;;;;;;;;;;8.90;66.99;100383.28;4995462;28;103054;-48
2022/02/02 00:46:11;;;;;;;;;;;;;;;8.90;66.83;100380.56;5007047;28;102395;-50
2022/02/02 00:48:37;;;;;;;;;;;;;;;8.90;66.86;100372.41;5006981;28;103041;-48
2022/02/02 00:51:03;;;;;;;;;;;;;;;8.90;67.40;100364.28;5007572;27;102972;-49
2022/02/02 00:53:29;;;;;;;;;;;;;;;8.89;67.12;100354.53;5008312;28;102229;-49
2022/02/02 00:55:56;;;;;;;;;;;;;;;8.89;66.77;100359.94;5007716;27;102246;-50
2022/02/02 00:58:24;;;;;;;;;;;;;;;8.89;66.87;100359.94;5009246;27;102208;-49
2022/02/02 01:00:50;;;;;;;;;;;;;;;8.88;66.97;100358.31;5007726;27;103877;-49
2022/02/02 01:03:18;;;;;;;;;;;;;;;8.89;66.96;100348.28;5012091;27;102487;-51
2022/02/02 01:05:44;;;;;;;;;;;;;;;8.88;67.46;100350.19;5011799;27;102938;-48
2022/02/02 01:10:59;;;;;;;;;;;;;;;8.89;66.75;100345.56;5008261;27;104101;-48
2022/02/02 01:30:02;;;;;;;;;;;;;;;8.87;67.62;100334.16;4993584;27;102504;-48
2022/02/02 01:32:28;;;;;;;;;;;;;;;8.86;67.55;100322.50;5017140;28;104033;-50
2022/02/02 01:34:55;;;;;;;;;;;;;;;8.86;67.06;100321.69;5013828;27;102154;-48
2022/02/02 01:37:21;;;;;;;;;;;;;;;8.86;67.59;100330.63;5014457;27;102310;-50
2022/02/02 01:39:54;;;;;;;;;;;;;;;8.86;67.46;100318.97;5012990;28;102632;-49
2022/02/02 01:42:20;;;;;;;;;;;;;;;8.86;66.98;100322.50;5012495;27;103919;-48
2022/02/02 01:44:56;;;;;;;;;;;;;;;8.87;67.67;100323.28;5013059;28;102180;-49
2022/02/02 01:47:31;;;;;;;;;;;;;;;8.86;66.97;100313.53;5013120;28;103140;-49
2022/02/02 01:55:02;;;;;;;;;;;;;;;8.86;66.90;100297.25;5004044;27;102050;-50
2022/02/02 02:00:08;;;;;;;;;;;;;;;8.86;67.52;100300.78;5014590;27;102672;-49
2022/02/02 02:02:36;;;;;;;;;;;;;;;8.86;67.49;100289.13;5011870;27;103994;-48
2022/02/02 02:05:02;;;;;;;;;;;;;;;8.86;66.93;100286.41;5012988;27;102443;-49
2022/02/02 02:07:28;;;;;;;;;;;;;;;8.86;67.76;100289.91;5013347;27;102511;-48
2022/02/02 02:09:57;;;;;;;;;;;;;;;8.88;66.81;100292.38;5014133;28;103141;-49
2022/02/02 02:12:24;;;;;;;;;;;;;;;8.86;66.91;100286.41;5017627;27;103895;-51
2022/02/02 02:14:56;;;;;;;;;;;;;;;8.86;67.16;100279.06;5012174;27;102311;-49
2022/02/02 02:17:25;;;;;;;;;;;;;;;8.87;67.20;100286.16;5010494;28;102146;-48
2022/02/02 02:19:53;;;;;;;;;;;;;;;8.86;67.36;100279.06;5013509;27;102697;-50
2022/02/02 02:22:20;;;;;;;;;;;;;;;8.87;66.60;100277.16;5004683;27;104145;-48
2022/02/02 02:24:47;;;;;;;;;;;;;;;8.88;67.47;100273.38;5008893;27;102667;-48
2022/02/02 02:27:16;;;;;;;;;;;;;;;8.87;67.06;100278.00;5008112;28;102875;-49
2022/02/02 02:57:30;;;;;;;;;;;;;;;8.87;67.19;100242.72;5008282;28;102078;-50
2022/02/02 03:00:23;;;;;;;;;;;;;;;8.86;66.95;100235.66;5009058;28;102583;-48
2022/02/02 03:13:49;;;;;;;;;;;;;;;8.86;67.50;100241.06;5008327;27;102221;-49
2022/02/02 03:30:22;;;;;;;;;;;;;;;8.85;67.51;100204.19;4999484;28;102457;-48
2022/02/02 03:57:25;;;;;;;;;;;;;;;8.82;67.00;100188.44;5006510;28;102130;-48
2022/02/02 04:04:41;;;;;;;;;;;;;;;8.81;66.81;100178.69;5009379;27;102607;-48
2022/02/02 04:07:21;;;;;;;;;;;;;;;8.81;67.25;100181.41;5007432;27;102614;-49
2022/02/02 04:09:48;;;;;;;;;;;;;;;8.80;67.11;100174.34;4998876;28;104073;-48
2022/02/02 04:54:05;;;;;;;;;;;;;;;8.75;66.62;100185.19;4995222;28;103922;-49
2022/02/02 05:19:38;;;;;;;;;;;;;;;8.74;67.19;100196.31;5008497;27;102310;-51
2022/02/02 05:22:37;;;;;;;;;;;;;;;8.73;67.64;100194.69;5012942;28;102111;-49
2022/02/02 05:51:48;;;;;;;;;;;;;;;8.72;66.96;100185.72;5009194;27;102630;-49
2022/02/02 05:54:15;;;;;;;;;;;;;;;8.71;67.04;100184.13;5004294;27;102169;-49
2022/02/02 05:56:43;;;;;;;;;;;;;;;8.72;67.02;100196.59;5003310;27;104051;-49
2022/02/02 05:59:09;;;;;;;;;;;;;;;8.73;67.13;100202.81;5012711;27;102407;-50
2022/02/02 06:01:36;;;;;;;;;;;;;;;8.72;66.77;100202.00;5009311;27;106403;-49
2022/02/02 06:04:07;;;;;;;;;;;;;;;8.74;66.67;100199.03;5005422;27;102704;-48
2022/02/02 06:06:38;;;;;;;;;;;;;;;8.72;67.30;100196.59;5010417;28;103500;-49
2022/02/02 06:09:04;;;;;;;;;;;;;;;8.72;67.75;100210.16;5013468;27;103682;-49
2022/02/02 06:11:32;;;;;;;;;;;;;;;8.72;67.19;100218.28;5005232;27;103357;-49
2022/02/02 06:13:59;;;;;;;;;;;;;;;8.73;66.65;100210.94;5007529;27;102642;-49
2022/02/02 06:16:28;;;;;;;;;;;;;;;8.72;67.05;100204.72;5007672;28;103416;-49
2022/02/02 06:19:01;;;;;;;;;;;;;;;8.73;67.30;100214.50;5007256;27;102383;-49
2022/02/02 06:21:28;;;;;;;;;;;;;;;8.74;67.32;100221.56;5002639;27;103461;-49
2022/02/02 06:23:59;;;;;;;;;;;;;;;8.74;66.82;100226.16;5001822;27;102295;-48
2022/02/02 06:26:26;;;;;;;;;;;;;;;8.74;66.86;100221.56;4999595;28;103820;-49
2022/02/02 06:28:55;;;;;;;;;;;;;;;8.74;67.14;100221.56;5009970;27;102522;-49
2022/02/02 06:31:24;;;;;;;;;;;;;;;8.75;67.33;100227.78;5009021;27;102364;-50
2022/02/02 06:33:53;;;;;;;;;;;;;;;8.75;66.56;100219.66;4992977;28;105972;-49
2022/02/02 06:36:20;;;;;;;;;;;;;;;8.75;67.31;100215.03;4999479;28;105927;-48
2022/02/02 06:38:48;;;;;;;;;;;;;;;8.75;67.58;100223.19;5004728;28;102371;-49
2022/02/02 06:41:16;;;;;;;;;;;;;;;8.76;67.10;100221.28;5006075;27;102500;-49
2022/02/02 06:43:43;;;;;;;;;;;;;;;8.76;67.46;100224.78;5008657;27;102924;-48
2022/02/02 06:46:10;;;;;;;;;;;;;;;8.76;67.09;100222.06;5007640;28;103943;-49
2022/02/02 06:48:36;;;;;;;;;;;;;;;8.76;67.35;100213.94;5008647;27;102362;-48
2022/02/02 06:51:18;;;;;;;;;;;;;;;8.78;66.98;100216.41;5006562;27;102270;-48
2022/02/02 06:53:54;;;;;;;;;;;;;;;8.78;67.60;100216.41;5001248;28;102483;-49
2022/02/02 07:02:15;;;;;;;;;;;;;;;8.79;67.39;100207.97;5006990;27;102319;-49
2022/02/02 07:12:49;;;;;;;;;;;;;;;8.82;66.72;100201.19;5008727;27;102555;-48
2022/02/02 07:15:24;;;;;;;;;;;;;;;8.82;67.15;100207.44;4999113;28;102890;-49
2022/02/02 07:20:49;;;;;;;;;;;;;;;8.83;67.13;100192.78;5008674;27;102126;-48
2022/02/02 07:26:43;;;;;;;;;;;;;;;8.85;67.31;100190.63;4999901;27;102462;-49
2022/02/02 07:32:24;;;;;;;;;;;;;;;8.85;67.36;100179.75;5001402;28;102645;-49
2022/02/02 07:34:37;;;;;;;;;;;;;;;8.86;67.10;100180.56;5004798;27;102147;-49
2022/02/02 07:37:06;;;;;;;;;;;;;;;8.86;67.43;100167.81;5006025;28;102575;-49
2022/02/02 07:39:34;;;;;;;;;;;;;;;8.86;67.13;100162.38;4996945;28;103998;-48
2022/02/02 07:42:04;;;;;;;;;;;;;;;8.87;67.27;100164.03;4998694;28;104974;-49
2022/02/02 07:44:34;;;;;;;;;;;;;;;8.86;67.66;100159.66;5003485;28;102607;-50
2022/02/02 07:47:05;;;;;;;;;;;;;;;8.87;67.43;100160.47;5003604;27;102662;-48
2022/02/02 07:49:35;;;;;;;;;;;;;;;8.86;67.61;100154.25;5003654;28;103983;-49
2022/02/02 07:52:02;;;;;;;;;;;;;;;8.86;67.16;100162.38;5005869;28;102440;-48
2022/02/02 07:54:37;;;;;;;;;;;;;;;8.88;67.62;100156.69;4994335;27;102985;-49
2022/02/02 07:57:13;;;;;;;;;;;;;;;8.88;67.07;100156.69;5011260;27;103535;-49
2022/02/02 07:59:54;;;;;;;;;;;;;;;8.88;67.22;100156.69;4994378;27;103691;-48
2022/02/02 08:02:26;;;;;;;;;;;;;;;8.88;67.19;100154.81;5000511;28;102648;-48
2022/02/02 08:04:52;;;;;;;;;;;;;;;8.88;67.75;100151.28;5005437;27;102793;-48
2022/02/02 08:07:25;;;;;;;;;;;;;;;8.89;67.12;100161.84;5003337;27;102612;-48
2022/02/02 08:10:06;;;;;;;;;;;;;;;8.88;67.17;100152.09;5000820;27;103931;-50
2022/02/02 08:12:41;;;;;;;;;;;;;;;8.89;67.64;100153.69;4999098;28;102696;-48
2022/02/02 08:15:09;;;;;;;;;;;;;;;8.89;67.41;100155.59;5001206;27;102814;-48
2022/02/02 08:17:36;;;;;;;;;;;;;;;8.89;67.31;100159.13;5008648;28;102460;-50
2022/02/02 08:20:02;;;;;;;;;;;;;;;8.89;67.76;100158.31;4995579;28;104049;-48
2022/02/02 08:22:29;;;;;;;;;;;;;;;8.90;67.76;100160.75;4998502;27;102565;-48
2022/02/02 08:24:56;;;;;;;;;;;;;;;8.89;67.69;100161.03;4998402;28;104310;-49
2022/02/02 08:27:22;;;;;;;;;;;;;;;8.89;67.74;100156.41;5005748;27;102457;-50
2022/02/02 08:29:49;;;;;;;;;;;;;;;8.89;67.07;100163.75;4995281;28;104018;-50
2022/02/02 08:32:17;;;;;;;;;;;;;;;8.89;67.72;100161.84;4999858;28;104878;-50
2022/02/02 08:34:48;;;;;;;;;;;;;;;8.88;67.79;100156.69;4997982;27;102262;-48
2022/02/02 08:37:14;;;;;;;;;;;;;;;8.89;67.30;100163.75;5001825;28;102281;-49
2022/02/02 08:40:18;;;;;;;;;;;;;;;8.89;67.28;100153.69;5004803;28;103682;-51
2022/02/02 08:42:31;;;;;;;;;;;;;;;8.89;67.22;100158.31;5001370;27;102197;-49
2022/02/02 08:45:33;;;;;;;;;;;;;;;8.88;67.39;100162.94;5001145;28;102237;-49
2022/02/02 08:47:58;;;;;;;;;;;;;;;8.89;67.17;100164.56;4998168;28;102647;-49
2022/02/02 08:50:34;;;;;;;;;;;;;;;8.90;67.29;100168.88;5001796;27;104227;-49
2022/02/02 08:53:10;;;;;;;;;;;;;;;8.89;67.45;100159.13;5005782;28;102541;-48
2022/02/02 08:58:36;;;;;;;;;;;;;;;8.89;67.00;100151.00;5006270;28;102483;-49
2022/02/02 09:01:07;;;;;;;;;;;;;;;8.90;67.70;100155.31;5001362;27;104214;-48
2022/02/02 09:06:19;;;;;;;;;;;;;;;8.89;67.60;100164.56;4996448;28;103640;-48
2022/02/02 09:08:48;;;;;;;;;;;;;;;8.92;66.73;100165.13;5000800;28;102766;-49
2022/02/02 09:35:26;;;;;;;;;;;;;;;8.92;66.86;100119.78;4999157;28;102498;-49
2022/02/02 09:37:53;;;;;;;;;;;;;;;8.92;67.62;100118.97;5007346;27;103472;-49
2022/02/02 09:42:54;;;;;;;;;;;;;;;8.90;67.34;100101.03;5004069;27;103587;-49
2022/02/02 09:45:21;;;;;;;;;;;;;;;8.90;67.52;100101.03;5004632;28;102197;-48
2022/02/02 09:47:56;;;;;;;;;;;;;;;8.90;67.77;100100.25;5006357;27;102646;-50
2022/02/02 09:50:36;;;;;;;;;;;;;;;8.90;66.94;100101.03;5009399;27;102597;-49
2022/02/02 09:53:06;;;;;;;;;;;;;;;8.91;66.96;100096.47;4999492;28;105388;-49
2022/02/02 10:05:55;;;;;;;;;;;;;;;8.93;67.47;100088.03;4998950;28;102575;-49
2022/02/02 10:11:46;;;;;;;;;;;;;;;8.93;67.52;100071.75;5009655;27;102245;-50
2022/02/02 10:14:17;;;;;;;;;;;;;;;8.93;67.48;100077.19;5006280;28;104091;-49
2022/02/02 10:16:45;;;;;;;;;;;;;;;8.94;67.03;100078.78;4997464;28;102957;-49
2022/02/02 10:19:11;;;;;;;;;;;;;;;8.94;67.00;100070.66;4998595;28;102404;-49
2022/02/02 10:21:37;;;;;;;;;;;;;;;8.95;67.57;100075.00;5004471;27;102328;-49
2022/02/02 10:24:05;;;;;;;;;;;;;;;8.94;66.80;100068.75;4996341;28;104108;-49
2022/02/02 10:26:31;;;;;;;;;;;;;;;8.94;67.26;100081.50;5004632;28;106365;-48
2022/02/02 10:29:06;;;;;;;;;;;;;;;8.94;67.86;100074.16;5007475;27;106461;-49
2022/02/02 10:31:37;;;;;;;;;;;;;;;8.94;66.91;100076.06;4999015;28;102022;-51
2022/02/02 10:34:08;;;;;;;;;;;;;;;8.95;67.31;100069.59;5009820;27;103915;-49
2022/02/02 10:36:34;;;;;;;;;;;;;;;8.94;67.23;100066.03;5000658;28;102339;-49
2022/02/02 10:39:09;;;;;;;;;;;;;;;8.94;67.40;100055.19;4995380;27;102270;-49
2022/02/02 10:41:44;;;;;;;;;;;;;;;8.95;67.28;100056.00;5009125;27;102572;-50
2022/02/02 10:44:20;;;;;;;;;;;;;;;8.95;67.85;100050.59;5006166;28;107698;-50
2022/02/02 10:50:04;;;;;;;;;;;;;;;8.95;67.73;100054.09;5000951;28;102322;-49
2022/02/02 10:52:58;;;;;;;;;;;;;;;8.95;67.57;100047.88;5006269;28;103565;-49
2022/02/02 11:08:57;;;;;;;;;;;;;;;8.94;67.77;100051.66;5010269;28;102229;-49
2022/02/02 11:11:23;;;;;;;;;;;;;;;8.94;67.27;100057.88;5009595;27;102699;-48
2022/02/02 11:13:57;;;;;;;;;;;;;;;8.95;67.56;100042.44;5018899;27;102194;-48
2022/02/02 11:16:26;;;;;;;;;;;;;;;8.95;67.35;100037.00;5004919;27;103910;-49
2022/02/02 11:18:53;;;;;;;;;;;;;;;8.96;67.71;100033.22;5004178;27;102346;-48
2022/02/02 11:21:29;;;;;;;;;;;;;;;8.94;67.74;100035.38;5004730;28;102220;-49
2022/02/02 11:23:57;;;;;;;;;;;;;;;8.94;67.47;100044.31;4999202;28;102414;-49
2022/02/02 11:26:38;;;;;;;;;;;;;;;8.95;68.10;100042.44;5008897;28;106412;-48
2022/02/02 11:29:06;;;;;;;;;;;;;;;8.95;67.18;100043.25;5007988;28;102453;-48
2022/02/02 11:31:32;;;;;;;;;;;;;;;8.94;67.13;100035.38;5010501;27;102594;-48
2022/02/02 11:34:00;;;;;;;;;;;;;;;8.95;67.55;100042.44;5003069;27;102604;-48
2022/02/02 11:36:32;;;;;;;;;;;;;;;8.95;67.57;100039.72;5007152;27;103863;-48
2022/02/02 11:39:00;;;;;;;;;;;;;;;8.94;67.86;100049.75;5005018;27;102245;-51
2022/02/02 11:44:17;;;;;;;;;;;;;;;8.94;67.46;100049.75;5010094;28;102656;-49
2022/02/02 11:46:47;;;;;;;;;;;;;;;8.95;67.65;100051.41;4999210;28;103883;-48
2022/02/02 11:49:16;;;;;;;;;;;;;;;8.95;67.15;100053.31;4999022;27;102377;-49
2022/02/02 11:51:43;;;;;;;;;;;;;;;8.95;67.56;100056.00;5003789;28;103741;-49
2022/02/02 11:54:11;;;;;;;;;;;;;;;8.96;67.47;100054.91;5007905;27;102416;-49
2022/02/02 11:56:56;;;;;;;;;;;;;;;8.95;67.17;100053.31;5005479;27;104201;-48
2022/02/02 12:08:05;;;;;;;;;;;;;;;8.95;67.06;100040.53;5003074;27;104051;-49
2022/02/02 12:10:35;;;;;;;;;;;;;;;8.95;67.71;100037.81;5000779;28;102551;-48
2022/02/02 12:19:26;;;;;;;;;;;;;;;8.95;67.50;100026.16;5006936;28;103848;-51
2022/02/02 12:57:31;;;;;;;;;;;;;;;8.99;67.76;100054.38;4995827;28;102673;-50
2022/02/02 13:00:14;;;;;;;;;;;;;;;8.99;67.12;100059.78;5007596;27;102457;-49
2022/02/02 13:02:41;;;;;;;;;;;;;;;8.99;67.91;100057.09;4995626;27;103883;-50
2022/02/02 13:05:08;;;;;;;;;;;;;;;8.99;67.47;100051.66;5003692;27;104143;-51
2022/02/02 13:07:37;;;;;;;;;;;;;;;8.99;67.28;100059.78;5006246;28;104392;-50
2022/02/02 13:10:05;;;;;;;;;;;;;;;8.99;67.61;100071.47;5007277;28;102771;-47
2022/02/02 13:12:55;;;;;;;;;;;;;;;9.00;67.43;100066.84;5009878;28;103701;-47
2022/02/02 13:18:11;;;;;;;;;;;;;;;8.99;67.72;100071.47;5004236;28;103429;-47
2022/02/02 13:23:38;;;;;;;;;;;;;;;8.99;67.62;100078.78;5003672;28;103906;-48
2022/02/02 13:26:09;;;;;;;;;;;;;;;9.00;67.52;100083.13;5006477;28;102849;-48
2022/02/02 13:31:22;;;;;;;;;;;;;;;9.00;67.74;100083.13;4999499;27;102137;-47
2022/02/02 13:33:52;;;;;;;;;;;;;;;9.00;67.59;100080.41;5004537;28;104328;-48
2022/02/02 13:36:27;;;;;;;;;;;;;;;9.00;67.29;100081.22;5005460;28;102723;-48
2022/02/02 13:42:18;;;;;;;;;;;;;;;9.00;67.48;100077.69;5000817;28;102337;-47
2022/02/02 13:53:09;;;;;;;;;;;;;;;9.01;67.55;100085.56;4993237;28;102299;-48
2022/02/02 13:55:54;;;;;;;;;;;;;;;9.01;68.06;100090.16;5003732;28;104112;-47
2022/02/02 14:00:58;;;;;;;;;;;;;;;9.02;67.14;100083.69;4998980;28;102282;-50
2022/02/02 14:09:18;;;;;;;;;;;;;;;9.01;67.61;100084.75;5000217;28;102293;-50
2022/02/02 14:25:49;;;;;;;;;;;;;;;9.02;67.43;100102.66;5007370;28;102909;-50
2022/02/02 14:33:32;;;;;;;;;;;;;;;9.01;68.01;100098.31;5008620;27;102805;-50
2022/02/02 14:36:01;;;;;;;;;;;;;;;9.01;67.47;100095.59;5008600;28;102322;-51
2022/02/02 14:38:34;;;;;;;;;;;;;;;9.01;67.57;100084.75;5004241;28;103516;-51
2022/02/02 14:41:13;;;;;;;;;;;;;;;9.02;67.95;100086.38;5002217;28;103023;-50
2022/02/02 14:43:49;;;;;;;;;;;;;;;9.02;67.16;100092.63;4998518;28;103245;-52
2022/02/02 14:46:19;;;;;;;;;;;;;;;9.01;67.32;100085.56;5005518;27;102642;-51
2022/02/02 14:48:54;;;;;;;;;;;;;;;9.01;67.51;100099.13;5002785;28;104943;-52
2022/02/02 15:29:11;;;;;;;;;;;;;;;9.01;67.25;100101.03;5003739;28;102639;-52
2022/02/02 15:31:40;;;;;;;;;;;;;;;9.01;67.71;100118.13;5003370;27;103786;-51
2022/02/02 15:34:11;;;;;;;;;;;;;;;9.01;67.51;100112.69;5007615;28;102567;-50
2022/02/02 15:39:15;;;;;;;;;;;;;;;9.01;67.18;100117.31;5006840;27;102495;-50
2022/02/02 15:42:33;;;;;;;;;;;;;;;9.02;67.50;100121.66;5000684;27;103556;-50
2022/02/02 15:58:14;;;;;;;;;;;;;;;9.02;67.54;100124.38;5005275;28;102717;-48
2022/02/02 16:03:34;;;;;;;;;;;;;;;9.02;67.75;100136.06;5004203;27;108196;-47
2022/02/02 16:06:19;;;;;;;;;;;;;;;9.03;67.30;100145.81;5006245;28;102659;-48
2022/02/02 16:08:47;;;;;;;;;;;;;;;9.01;68.01;100149.88;4999472;27;102394;-47
2022/02/02 16:11:20;;;;;;;;;;;;;;;9.02;68.27;100146.91;5003238;27;102962;-48
2022/02/02 16:13:50;;;;;;;;;;;;;;;9.02;67.70;100135.25;4991139;28;107158;-47
2022/02/02 16:19:00;;;;;;;;;;;;;;;9.01;67.93;100144.44;5003110;28;105998;-47
2022/02/02 16:38:11;;;;;;;;;;;;;;;9.02;67.25;100176.75;5008360;28;102509;-48
2022/02/02 16:40:41;;;;;;;;;;;;;;;9.01;67.47;100166.97;5003141;28;103146;-50
2022/02/02 16:43:13;;;;;;;;;;;;;;;9.02;67.33;100170.53;5003720;27;102410;-48
2022/02/02 16:45:39;;;;;;;;;;;;;;;9.01;67.17;100171.59;5005322;28;104158;-47
2022/02/02 16:48:06;;;;;;;;;;;;;;;9.01;67.29;100171.59;5005228;28;102240;-47
2022/02/02 16:50:37;;;;;;;;;;;;;;;9.02;67.94;100178.66;5005067;28;103886;-47
2022/02/02 17:27:37;;;;;;;;;;;;;;;9.02;67.94;100194.94;5002837;28;102716;-48
2022/02/02 17:31:36;;;;;;;;;;;;;;;9.02;67.93;100184.09;5000621;28;102685;-47
2022/02/02 17:34:15;;;;;;;;;;;;;;;9.01;67.23;100187.88;4998898;28;102331;-48
2022/02/02 17:36:48;;;;;;;;;;;;;;;9.02;68.04;100197.66;5007311;27;102154;-48
2022/02/02 17:39:18;;;;;;;;;;;;;;;9.02;67.68;100198.47;5000008;28;103860;-47
2022/02/02 17:42:24;;;;;;;;;;;;;;;9.01;68.08;100190.59;5005976;28;102395;-47
2022/02/02 18:16:17;;;;;;;;;;;;;;;9.05;67.48;100194.38;5002339;27;102574;-50
2022/02/02 18:20:48;;;;;;;;;;;;;;;9.05;67.71;100199.81;5007946;28;103675;-50
2022/02/02 18:34:19;;;;;;;;;;;;;;;9.05;67.93;100188.94;5008410;28;103875;-49
2022/02/02 18:50:08;;;;;;;;;;;;;;;9.06;68.30;100190.59;5003452;27;102236;-50
2022/02/02 19:08:18;;;;;;;;;;;;;;;9.07;67.72;100219.38;5008803;28;102207;-50
2022/02/02 20:02:06;;;;;;;;;;;;;;;9.07;68.11;100251.94;5002986;27;102294;-49
2022/02/02 20:12:07;;;;;;;;;;;;;;;9.08;67.46;100253.56;5005459;28;102270;-48
2022/02/02 20:14:33;;;;;;;;;;;;;;;9.06;67.69;100255.75;5007747;28;102418;-48
2022/02/02 20:16:59;;;;;;;;;;;;;;;9.06;67.66;100256.56;5009290;28;102121;-48
2022/02/02 20:19:26;;;;;;;;;;;;;;;9.07;68.11;100251.94;5006716;28;103738;-49
2022/02/02 20:21:56;;;;;;;;;;;;;;;9.05;68.05;100238.66;5007537;27;102422;-48
2022/02/02 20:24:26;;;;;;;;;;;;;;;9.06;68.18;100242.19;5016864;27;101921;-49
2022/02/02 20:26:52;;;;;;;;;;;;;;;9.06;68.02;100244.88;5007390;28;102507;-48
2022/02/02 20:29:19;;;;;;;;;;;;;;;9.07;67.59;100246.50;5001181;28;103924;-48
2022/02/02 20:31:45;;;;;;;;;;;;;;;9.06;67.47;100244.88;5008764;28;102161;-48
2022/02/02 20:34:11;;;;;;;;;;;;;;;9.06;67.65;100255.75;5007329;28;103933;-50
2022/02/02 20:36:39;;;;;;;;;;;;;;;9.06;67.89;100261.19;5010918;28;102698;-48
2022/02/02 20:39:12;;;;;;;;;;;;;;;9.06;68.00;100263.88;5008906;28;104259;-50
2022/02/02 20:41:40;;;;;;;;;;;;;;;9.06;67.67;100258.47;5005722;28;102366;-48
2022/02/02 20:44:16;;;;;;;;;;;;;;;9.06;68.25;100261.19;5002849;28;102239;-48
2022/02/02 21:01:19;;;;;;;;;;;;;;;9.05;68.27;100267.66;4997999;28;107836;-48
2022/02/02 21:06:21;;;;;;;;;;;;;;;9.05;67.33;100256.81;5001266;28;102453;-48
2022/02/02 21:14:08;;;;;;;;;;;;;;;9.05;67.32;100254.09;5007248;27;102788;-49
2022/02/02 21:16:38;;;;;;;;;;;;;;;9.05;67.69;100259.53;5003424;27;103001;-48
2022/02/02 21:19:07;;;;;;;;;;;;;;;9.04;67.89;100264.16;5003602;28;102455;-48
2022/02/02 21:21:37;;;;;;;;;;;;;;;9.05;67.76;100267.66;5004604;28;106502;-48
2022/02/02 21:29:23;;;;;;;;;;;;;;;9.05;67.83;100270.38;5004269;28;102920;-49
2022/02/02 21:31:49;;;;;;;;;;;;;;;9.04;67.94;100274.19;5007873;28;103946;-48
2022/02/02 21:34:17;;;;;;;;;;;;;;;9.04;67.64;100268.75;5009103;27;102624;-47
2022/02/02 21:36:44;;;;;;;;;;;;;;;9.03;67.87;100276.09;5004536;27;103612;-48
2022/02/02 21:39:19;;;;;;;;;;;;;;;9.05;67.92;100286.66;5006295;27;102206;-48
2022/02/02 21:41:46;;;;;;;;;;;;;;;9.04;68.38;100291.28;5002502;27;103891;-48
2022/02/02 21:44:14;;;;;;;;;;;;;;;9.05;67.92;100289.38;5002246;27;102519;-48
2022/02/02 21:46:41;;;;;;;;;;;;;;;9.03;67.47;100276.09;5006240;27;102990;-48
2022/02/02 21:49:14;;;;;;;;;;;;;;;9.03;68.03;100278.00;5006972;27;102620;-47
2022/02/02 21:51:51;;;;;;;;;;;;;;;9.04;68.34;100290.47;5009381;28;103878;-48
2022/02/02 21:54:18;;;;;;;;;;;;;;;9.04;68.19;100285.06;5002761;28;102097;-48
2022/02/02 21:56:44;;;;;;;;;;;;;;;9.04;67.92;100280.44;5010626;27;102456;-47
2022/02/02 21:59:10;;;;;;;;;;;;;;;9.03;67.40;100284.25;5001817;28;102651;-50
2022/02/02 22:01:38;;;;;;;;;;;;;;;9.03;67.58;100278.81;5003587;27;103843;-48
2022/02/02 22:04:04;;;;;;;;;;;;;;;9.03;67.49;100283.44;5011074;27;103837;-49
2022/02/02 22:06:31;;;;;;;;;;;;;;;9.03;67.28;100284.25;5014747;27;102080;-47
2022/02/02 22:08:57;;;;;;;;;;;;;;;9.04;68.09;100290.47;5007699;27;102180;-47
2022/02/02 22:11:23;;;;;;;;;;;;;;;9.03;67.63;100288.84;5005410;28;104109;-48
2022/02/02 22:14:02;;;;;;;;;;;;;;;9.03;67.81;100289.66;5002207;28;102611;-48
2022/02/02 22:16:38;;;;;;;;;;;;;;;9.03;68.09;100292.38;4998936;28;102163;-47
2022/02/02 22:19:06;;;;;;;;;;;;;;;9.04;67.84;100295.91;5017942;28;103775;-48
2022/02/02 22:21:32;;;;;;;;;;;;;;;9.04;67.73;100298.63;5009327;27;104118;-48
2022/02/02 22:24:01;;;;;;;;;;;;;;;9.04;68.12;100290.47;5010204;27;102724;-48
2022/02/02 22:26:28;;;;;;;;;;;;;;;9.03;67.98;100291.56;5007119;27;105478;-48
2022/02/02 22:28:55;;;;;;;;;;;;;;;9.04;67.74;100298.63;5010645;27;102620;-48
2022/02/02 22:31:21;;;;;;;;;;;;;;;9.04;67.76;100301.34;5010235;28;103817;-49
2022/02/02 22:33:47;;;;;;;;;;;;;;;9.03;68.00;100288.84;5005680;28;102309;-48
2022/02/02 22:36:15;;;;;;;;;;;;;;;9.04;67.64;100295.91;5004545;28;102601;-48
2022/02/02 22:38:43;;;;;;;;;;;;;;;9.03;68.21;100291.56;5011827;27;103239;-48
2022/02/02 22:41:10;;;;;;;;;;;;;;;9.04;67.45;100290.47;5011705;28;103615;-48
2022/02/02 22:43:43;;;;;;;;;;;;;;;9.03;67.77;100295.09;5010664;27;102404;-47
2022/02/02 22:46:09;;;;;;;;;;;;;;;9.03;67.93;100294.28;5002844;27;102208;-49
2022/02/02 22:48:38;;;;;;;;;;;;;;;9.03;67.39;100286.16;5010103;27;102638;-47
2022/02/02 22:51:04;;;;;;;;;;;;;;;9.04;68.21;100295.91;5009449;27;103875;-49
2022/02/02 22:53:32;;;;;;;;;;;;;;;9.04;67.78;100285.06;5008173;28;102689;-48
2022/02/02 22:55:58;;;;;;;;;;;;;;;9.03;68.23;100291.56;5001617;28;102138;-50
2022/02/02 22:58:24;;;;;;;;;;;;;;;9.04;67.39;100295.91;5009093;27;102504;-48
2022/02/02 23:00:50;;;;;;;;;;;;;;;9.03;67.54;100305.16;5003648;28;103929;-48
2022/02/02 23:03:20;;;;;;;;;;;;;;;9.02;67.93;100298.09;5010032;28;102395;-49
2022/02/02 23:05:51;;;;;;;;;;;;;;;9.03;67.96;100299.72;5001793;27;102465;-48
2022/02/02 23:08:19;;;;;;;;;;;;;;;9.03;67.73;100294.28;5007548;27;102451;-47
2022/02/02 23:10:47;;;;;;;;;;;;;;;9.03;67.76;100305.94;5007336;27;103890;-48
2022/02/02 23:13:14;;;;;;;;;;;;;;;9.03;68.39;100307.84;5007521;27;102286;-48
2022/02/02 23:18:21;;;;;;;;;;;;;;;9.03;67.93;100302.44;5011122;28;102239;-48
2022/02/02 23:20:54;;;;;;;;;;;;;;;9.02;67.96;100304.34;5007716;28;108035;-48
2022/02/02 23:23:22;;;;;;;;;;;;;;;9.03;67.92;100305.16;5008972;28;102335;-51
2022/02/02 23:25:50;;;;;;;;;;;;;;;9.03;68.19;100310.56;5003660;28;102724;-48
2022/02/02 23:28:17;;;;;;;;;;;;;;;9.03;67.65;100305.94;5009173;28;103789;-49
2022/02/02 23:30:44;;;;;;;;;;;;;;;9.03;67.19;100316.00;5006784;28;103970;-49
2022/02/02 23:33:10;;;;;;;;;;;;;;;9.03;68.20;100321.44;5004281;27;102283;-49
2022/02/02 23:35:37;;;;;;;;;;;;;;;9.02;67.55;100331.47;5007477;28;102400;-48
2022/02/02 23:38:03;;;;;;;;;;;;;;;9.03;67.57;100343.16;5009933;27;102209;-47
2022/02/02 23:40:39;;;;;;;;;;;;;;;9.03;67.34;100343.16;5003975;28;104349;-47
2022/02/02 23:43:07;;;;;;;;;;;;;;;9.03;67.83;100335.00;5003482;28;102014;-48
2022/02/02 23:45:34;;;;;;;;;;;;;;;9.02;67.85;100341.53;5009264;28;102612;-48
2022/02/02 23:48:03;;;;;;;;;;;;;;;9.03;68.22;100345.84;5010009;28;102131;-49
2022/02/02 23:50:31;;;;;;;;;;;;;;;9.03;67.58;100348.56;5004373;28;103718;-49
2022/02/02 23:52:57;;;;;;;;;;;;;;;9.02;68.41;100347.75;4995253;28;102485;-47
2022/02/02 23:55:37;;;;;;;;;;;;;;;9.02;67.74;100347.75;5005534;27;102518;-48
2022/02/02 23:58:22;;;;;;;;;;;;;;;9.02;67.93;100355.91;5008229;27;102321;-48
